createdAt,value
2023-01-17T00:02:04.311Z,26.30
2023-01-17T00:05:25.544Z,26.60
2023-01-17T00:08:45.854Z,26.90
2023-01-17T00:11:48.127Z,27.00
2023-01-17T00:14:51.499Z,27.30
2023-01-17T00:17:54.137Z,27.30
2023-01-17T00:21:14.508Z,27.50
2023-01-17T00:24:35.255Z,27.40
2023-01-17T00:27:38.168Z,27.70
2023-01-17T00:30:40.426Z,27.80
2023-01-17T00:33:42.560Z,27.80
2023-01-17T00:36:44.749Z,27.80
2023-01-17T00:39:46.632Z,27.60
2023-01-17T00:42:48.925Z,27.90
2023-01-17T00:46:10.829Z,28.00
2023-01-17T00:49:31.936Z,28.00
2023-01-17T00:52:52.432Z,28.20
2023-01-17T00:56:13.521Z,28.20
2023-01-17T00:59:33.986Z,28.30
2023-01-17T01:02:55.373Z,28.40
2023-01-17T01:06:15.898Z,28.20
2023-01-17T01:09:36.871Z,28.20
2023-01-17T01:12:57.346Z,27.90
2023-01-17T01:16:24.208Z,27.50
2023-01-17T01:19:45.100Z,27.60
2023-01-17T01:23:06.485Z,27.70
2023-01-17T01:26:26.990Z,28.00
2023-01-17T01:29:48.036Z,27.80
2023-01-17T01:33:08.528Z,27.80
2023-01-17T01:36:10.934Z,27.90
2023-01-17T01:39:12.944Z,27.90
2023-01-17T01:42:16.346Z,27.90
2023-01-17T01:45:29.134Z,27.90
2023-01-17T01:48:39.768Z,28.00
2023-01-17T01:51:47.219Z,28.00
2023-01-17T01:54:58.613Z,27.90
2023-01-17T01:58:08.575Z,28.00
2023-01-17T02:01:11.104Z,28.00
2023-01-17T02:04:13.713Z,28.00
2023-01-17T02:07:25.512Z,27.90
2023-01-17T02:10:28.381Z,27.90
2023-01-17T02:13:31.445Z,27.80
2023-01-17T02:16:38.977Z,28.00
2023-01-17T02:19:43.968Z,27.90
2023-01-17T02:22:51.748Z,27.80
2023-01-17T02:26:30.867Z,27.80
2023-01-17T02:29:38.342Z,27.90
2023-01-17T02:32:56.799Z,28.00
2023-01-17T02:36:13.504Z,27.80
2023-01-17T02:39:28.305Z,28.00
2023-01-17T02:42:39.784Z,27.80
2023-01-17T02:45:42.261Z,27.80
2023-01-17T02:48:45.591Z,27.60
2023-01-17T02:51:55.260Z,27.60
2023-01-17T02:55:19.073Z,27.70
2023-01-17T02:58:34.426Z,27.70
2023-01-17T03:02:04.428Z,27.50
2023-01-17T03:05:20.198Z,27.50
2023-01-17T03:08:23.454Z,27.60
2023-01-17T03:11:27.756Z,27.40
2023-01-17T03:14:31.866Z,27.70
2023-01-17T03:17:34.248Z,27.70
2023-01-17T03:20:36.396Z,27.80
2023-01-17T03:23:38.832Z,27.70
2023-01-17T03:26:44.900Z,27.60
2023-01-17T03:29:47.133Z,27.50
2023-01-17T03:32:49.644Z,27.30
2023-01-17T03:35:52.860Z,27.60
2023-01-17T03:38:54.875Z,27.60
2023-01-17T03:41:57.115Z,27.80
2023-01-17T03:44:59.200Z,27.70
2023-01-17T03:48:01.455Z,27.50
2023-01-17T03:51:03.517Z,27.60
2023-01-17T03:54:05.947Z,27.70
2023-01-17T03:57:08.636Z,27.80
2023-01-17T04:00:11.470Z,27.70
2023-01-17T04:03:13.450Z,27.40
2023-01-17T04:06:15.728Z,27.60
2023-01-17T04:09:17.694Z,27.40
2023-01-17T04:12:20.039Z,27.60
2023-01-17T04:15:22.042Z,27.50
2023-01-17T04:18:25.006Z,27.50
2023-01-17T04:21:27.012Z,27.50
2023-01-17T04:24:29.255Z,27.40
2023-01-17T04:27:31.304Z,27.40
2023-01-17T04:30:33.918Z,27.30
2023-01-17T04:33:36.007Z,27.40
2023-01-17T04:36:38.239Z,27.50
2023-01-17T04:39:40.236Z,27.60
2023-01-17T04:42:45.391Z,27.50
2023-01-17T04:45:47.396Z,27.40
2023-01-17T04:48:49.648Z,27.60
2023-01-17T04:51:51.708Z,27.60
2023-01-17T04:54:53.991Z,27.40
2023-01-17T04:57:56.164Z,27.30
2023-01-17T05:01:04.081Z,27.50
2023-01-17T05:04:06.189Z,27.30
2023-01-17T05:07:08.620Z,27.40
2023-01-17T05:10:11.242Z,27.40
2023-01-17T05:13:13.825Z,27.40
2023-01-17T05:16:19.222Z,27.60
2023-01-17T05:19:22.624Z,27.60
2023-01-17T05:22:24.559Z,27.70
2023-01-17T05:25:30.139Z,27.50
2023-01-17T05:28:32.102Z,27.50
2023-01-17T05:31:34.445Z,27.60
2023-01-17T05:34:36.411Z,27.60
2023-01-17T05:37:38.796Z,27.50
2023-01-17T05:40:40.774Z,27.30
2023-01-17T05:43:43.036Z,27.60
2023-01-17T05:46:45.121Z,27.50
2023-01-17T05:49:47.377Z,27.50
2023-01-17T05:52:52.772Z,27.50
2023-01-17T05:55:55.512Z,27.70
2023-01-17T05:58:57.464Z,27.60
2023-01-17T06:01:59.726Z,27.80
2023-01-17T06:05:03.450Z,27.70
2023-01-17T06:08:06.178Z,27.70
2023-01-17T06:11:08.196Z,27.70
2023-01-17T06:14:10.588Z,27.70
2023-01-17T06:17:12.815Z,27.40
2023-01-17T06:20:15.052Z,27.60
2023-01-17T06:23:17.111Z,27.80
2023-01-17T06:26:19.697Z,27.80
2023-01-17T06:29:21.729Z,27.90
2023-01-17T06:32:24.105Z,27.70
2023-01-17T06:35:26.117Z,27.40
2023-01-17T06:38:29.883Z,27.60
2023-01-17T06:41:32.024Z,27.20
2023-01-17T06:44:34.339Z,27.60
2023-01-17T06:47:39.766Z,27.40
2023-01-17T06:50:41.998Z,27.30
2023-01-17T06:53:44.181Z,27.00
2023-01-17T06:56:46.434Z,27.30
2023-01-17T06:59:48.618Z,27.50
2023-01-17T07:02:51.541Z,27.60
2023-01-17T07:05:56.335Z,27.60
2023-01-17T07:08:59.095Z,27.60
2023-01-17T07:12:02.054Z,27.50
2023-01-17T07:15:05.264Z,27.20
2023-01-17T07:18:07.701Z,27.30
2023-01-17T07:21:19.049Z,27.20
2023-01-17T07:24:21.691Z,27.20
2023-01-17T07:27:30.246Z,27.30
2023-01-17T07:30:32.514Z,27.00
2023-01-17T07:33:35.377Z,26.90
2023-01-17T07:36:37.625Z,27.00
2023-01-17T07:39:39.863Z,26.80
2023-01-17T07:42:41.913Z,27.30
2023-01-17T07:45:51.490Z,27.60
2023-01-17T07:48:53.778Z,27.60
2023-01-17T07:51:56.056Z,27.70
2023-01-17T07:54:58.006Z,27.10
2023-01-17T07:58:02.803Z,27.40
2023-01-17T08:01:07.436Z,27.50
2023-01-17T08:04:10.406Z,27.50
2023-01-17T08:07:14.047Z,27.50
2023-01-17T08:10:18.080Z,27.30
2023-01-17T08:13:22.041Z,26.90
2023-01-17T08:16:28.622Z,27.10
2023-01-17T08:19:30.704Z,27.20
2023-01-17T08:22:33.143Z,27.50
2023-01-17T08:25:35.432Z,27.40
2023-01-17T08:28:37.791Z,27.00
2023-01-17T08:31:40.964Z,27.10
2023-01-17T08:34:43.318Z,26.80
2023-01-17T08:37:45.618Z,26.40
2023-01-17T08:40:47.884Z,26.90
2023-01-17T08:43:51.960Z,26.90
2023-01-17T08:46:54.231Z,27.20
2023-01-17T08:49:56.203Z,27.00
2023-01-17T08:53:01.107Z,27.00
2023-01-17T08:56:05.357Z,27.00
2023-01-17T08:59:07.710Z,27.10
2023-01-17T09:02:15.368Z,27.00
2023-01-17T09:05:17.677Z,27.00
2023-01-17T09:08:19.766Z,27.40
2023-01-17T09:11:22.170Z,27.70
2023-01-17T09:14:24.416Z,27.40
2023-01-17T09:17:26.770Z,28.00
2023-01-17T09:20:30.798Z,28.00
2023-01-17T09:23:33.187Z,28.20
2023-01-17T09:26:35.517Z,27.90
2023-01-17T09:29:37.839Z,28.30
2023-01-17T09:32:39.893Z,28.40
2023-01-17T09:35:42.351Z,28.60
2023-01-17T09:38:44.659Z,28.60
2023-01-17T09:42:16.889Z,28.10
2023-01-17T09:45:20.369Z,28.50
2023-01-17T09:48:39.139Z,28.50
2023-01-17T09:51:42.615Z,28.40
2023-01-17T09:54:48.043Z,28.50
2023-01-17T09:58:08.568Z,28.60
2023-01-17T10:01:12.304Z,28.60
2023-01-17T10:04:32.814Z,28.30
2023-01-17T10:07:50.115Z,28.40
2023-01-17T10:11:06.243Z,28.60
2023-01-17T10:14:23.501Z,29.20
2023-01-17T10:18:03.001Z,29.60
2023-01-17T10:21:52.348Z,29.40
2023-01-17T10:24:57.209Z,29.10
2023-01-17T10:28:04.972Z,29.30
2023-01-17T10:31:22.181Z,29.20
2023-01-17T10:34:49.371Z,28.30
2023-01-17T10:37:57.838Z,28.40
2023-01-17T10:41:08.880Z,28.80
2023-01-17T10:44:16.043Z,29.00
2023-01-17T10:47:23.490Z,28.30
2023-01-17T10:50:28.521Z,28.90
2023-01-17T10:53:39.855Z,28.50
2023-01-17T10:56:42.012Z,28.50
2023-01-17T10:59:44.496Z,28.30
2023-01-17T11:02:50.830Z,28.40
2023-01-17T11:06:18.099Z,28.30
2023-01-17T11:09:20.712Z,28.10
2023-01-17T11:12:44.953Z,28.50
2023-01-17T11:15:50.528Z,28.40
2023-01-17T11:19:21.652Z,28.80
2023-01-17T11:22:24.930Z,28.90
2023-01-17T11:25:28.695Z,29.40
2023-01-17T11:28:33.323Z,29.40
2023-01-17T11:31:35.614Z,29.30
2023-01-17T11:34:38.455Z,29.00
2023-01-17T11:37:52.169Z,29.10
2023-01-17T11:41:14.189Z,28.80
2023-01-17T11:44:24.682Z,29.00
2023-01-17T11:47:26.690Z,29.00
2023-01-17T11:50:29.274Z,29.00
2023-01-17T11:53:40.508Z,28.90
2023-01-17T11:56:46.096Z,28.30
2023-01-17T11:59:48.515Z,28.80
2023-01-17T12:02:53.915Z,29.00
2023-01-17T12:06:05.557Z,28.70
2023-01-17T12:09:30.030Z,28.80
2023-01-17T12:13:01.610Z,29.10
2023-01-17T12:16:28.898Z,28.90
2023-01-17T12:19:38.871Z,28.70
2023-01-17T12:23:25.692Z,28.70
2023-01-17T12:27:06.429Z,28.10
2023-01-17T12:30:38.175Z,28.00
2023-01-17T12:33:55.104Z,27.80
2023-01-17T12:37:06.932Z,28.00
2023-01-17T12:40:30.591Z,27.40
2023-01-17T12:43:43.320Z,27.40
2023-01-17T12:46:59.419Z,27.60
2023-01-17T12:50:31.197Z,27.70
2023-01-17T12:53:59.435Z,28.20
2023-01-17T12:57:23.244Z,28.10
2023-01-17T13:00:29.770Z,27.60
2023-01-17T13:03:57.932Z,28.00
2023-01-17T13:07:00.177Z,28.30
2023-01-17T13:10:08.442Z,28.20
2023-01-17T13:13:30.596Z,28.00
2023-01-17T13:16:42.974Z,27.90
2023-01-17T13:20:00.165Z,28.20
2023-01-17T13:23:12.749Z,27.90
2023-01-17T13:26:27.396Z,27.60
2023-01-17T13:29:48.539Z,27.20
2023-01-17T13:33:08.384Z,27.20
2023-01-17T13:36:16.785Z,27.80
2023-01-17T13:39:29.630Z,28.00
2023-01-17T13:42:41.467Z,28.10
2023-01-17T13:45:59.383Z,28.20
2023-01-17T13:49:42.351Z,28.40
2023-01-17T13:52:44.442Z,28.50
2023-01-17T13:55:59.120Z,28.60
2023-01-17T13:59:03.277Z,28.40
2023-01-17T14:02:31.534Z,28.30
2023-01-17T14:05:39.619Z,28.10
2023-01-17T14:08:45.441Z,28.60
2023-01-17T14:12:10.475Z,28.10
2023-01-17T14:15:25.615Z,27.40
2023-01-17T14:18:48.407Z,27.90
2023-01-17T14:21:50.953Z,27.90
2023-01-17T14:25:11.663Z,28.00
2023-01-17T14:28:32.532Z,28.10
2023-01-17T14:31:34.605Z,28.20
2023-01-17T14:34:37.480Z,28.10
2023-01-17T14:37:52.727Z,28.40
2023-01-17T14:41:20.190Z,27.80
2023-01-17T14:44:22.733Z,28.30
2023-01-17T14:47:26.573Z,28.90
2023-01-17T14:50:35.296Z,29.20
2023-01-17T14:53:37.666Z,29.20
2023-01-17T14:56:39.796Z,29.00
2023-01-17T14:59:42.265Z,29.30
2023-01-17T15:02:45.110Z,28.90
2023-01-17T15:05:50.926Z,29.00
2023-01-17T15:08:55.664Z,29.00
2023-01-17T15:11:58.373Z,28.80
2023-01-17T15:15:02.095Z,28.60
2023-01-17T15:18:19.677Z,28.50
2023-01-17T15:21:24.956Z,28.20
2023-01-17T15:24:34.410Z,28.60
2023-01-17T15:27:38.091Z,28.40
2023-01-17T15:31:03.629Z,28.00
2023-01-17T15:34:21.147Z,28.20
2023-01-17T15:37:30.950Z,27.90
2023-01-17T15:40:33.212Z,27.70
2023-01-17T15:43:35.970Z,27.90
2023-01-17T15:46:43.416Z,27.90
2023-01-17T15:49:51.994Z,28.20
2023-01-17T15:53:05.608Z,28.00
2023-01-17T15:56:24.260Z,28.10
2023-01-17T15:59:48.275Z,28.00
2023-01-17T16:02:58.951Z,27.70
2023-01-17T16:06:02.966Z,27.60
2023-01-17T16:09:24.888Z,27.70
2023-01-17T16:12:26.884Z,28.00
2023-01-17T16:15:30.213Z,27.90
2023-01-17T16:18:32.200Z,27.90
2023-01-17T16:21:34.628Z,27.80
2023-01-17T16:24:36.724Z,27.70
2023-01-17T16:27:41.416Z,27.60
2023-01-17T16:30:45.059Z,27.60
2023-01-17T16:33:49.825Z,27.60
2023-01-17T16:36:54.935Z,27.60
2023-01-17T16:39:57.254Z,27.80
2023-01-17T16:43:00.433Z,27.60
2023-01-17T16:46:02.987Z,27.80
2023-01-17T16:49:06.145Z,27.90
2023-01-17T16:52:08.395Z,27.80
2023-01-17T16:55:13.306Z,27.60
2023-01-17T16:58:16.778Z,27.30
2023-01-17T17:01:21.286Z,27.20
2023-01-17T17:04:24.115Z,27.20
2023-01-17T17:07:26.195Z,27.20
2023-01-17T17:10:28.565Z,27.40
2023-01-17T17:13:30.554Z,27.60
2023-01-17T17:16:33.935Z,27.60
2023-01-17T17:19:36.151Z,27.60
2023-01-17T17:22:39.816Z,27.70
2023-01-17T17:25:41.776Z,27.70
2023-01-17T17:28:44.008Z,27.70
2023-01-17T17:31:46.216Z,27.80
2023-01-17T17:34:50.673Z,27.70
2023-01-17T17:37:52.928Z,27.70
2023-01-17T17:40:55.447Z,27.70
2023-01-17T17:43:59.623Z,27.60
2023-01-17T17:47:02.219Z,27.60
2023-01-17T17:50:04.471Z,27.60
2023-01-17T17:53:07.283Z,27.50
2023-01-17T17:56:09.587Z,27.50
2023-01-17T17:59:13.913Z,27.50
2023-01-17T18:02:16.460Z,27.40
2023-01-17T18:05:18.767Z,27.30
2023-01-17T18:08:21.644Z,27.20
2023-01-17T18:11:26.110Z,27.20
2023-01-17T18:14:28.274Z,27.20
2023-01-17T18:17:30.583Z,27.20
2023-01-17T18:20:33.062Z,27.20
2023-01-17T18:23:38.664Z,27.20
2023-01-17T18:26:47.112Z,27.10
2023-01-17T18:29:49.576Z,27.00
2023-01-17T18:32:51.549Z,27.00
2023-01-17T18:35:55.710Z,26.90
2023-01-17T18:38:58.048Z,26.90
2023-01-17T18:42:00.607Z,26.80
2023-01-17T18:45:02.640Z,26.80
2023-01-17T18:48:05.610Z,26.70
2023-01-17T18:51:13.510Z,26.60
2023-01-17T18:54:16.483Z,26.60
2023-01-17T18:57:18.473Z,26.50
2023-01-17T19:00:21.419Z,26.50
2023-01-17T19:03:31.474Z,26.50
2023-01-17T19:06:37.303Z,26.60
2023-01-17T19:09:39.308Z,26.50
2023-01-17T19:12:41.762Z,26.50
2023-01-17T19:15:43.736Z,26.50
2023-01-17T19:18:46.939Z,26.60
2023-01-17T19:21:52.013Z,26.60
2023-01-17T19:24:54.957Z,26.50
2023-01-17T19:27:58.330Z,26.50
2023-01-17T19:31:27.340Z,26.40
2023-01-17T19:34:29.463Z,26.40
2023-01-17T19:37:31.774Z,26.40
2023-01-17T19:40:33.826Z,26.40
2023-01-17T19:43:36.539Z,26.30
2023-01-17T19:46:39.070Z,26.30
2023-01-17T19:49:42.528Z,26.20
2023-01-17T19:52:44.642Z,26.10
2023-01-17T19:55:47.066Z,26.10
2023-01-17T19:58:49.980Z,26.20
2023-01-17T20:01:52.390Z,26.20
2023-01-17T20:04:54.681Z,26.20
2023-01-17T20:07:57.405Z,26.20
2023-01-17T20:11:14.819Z,26.20
2023-01-17T20:14:17.387Z,26.20
2023-01-17T20:17:19.432Z,26.20
2023-01-17T20:20:22.780Z,26.10
2023-01-17T20:23:24.948Z,26.20
2023-01-17T20:26:36.093Z,26.20
2023-01-17T20:29:40.615Z,26.20
2023-01-17T20:32:42.929Z,26.10
2023-01-17T20:35:45.143Z,26.10
2023-01-17T20:38:48.725Z,26.10
2023-01-17T20:41:51.586Z,26.10
2023-01-17T20:44:53.905Z,26.10
2023-01-17T20:47:56.521Z,26.10
2023-01-17T20:51:10.665Z,26.10
2023-01-17T20:54:15.959Z,26.10
2023-01-17T20:57:18.260Z,26.10
2023-01-17T21:00:20.742Z,26.00
2023-01-17T21:03:25.069Z,26.00
2023-01-17T21:06:27.307Z,26.00
2023-01-17T21:09:29.836Z,26.00
2023-01-17T21:12:31.860Z,26.00
2023-01-17T21:15:34.116Z,26.00
2023-01-17T21:18:36.604Z,26.00
2023-01-17T21:21:38.964Z,26.00
2023-01-17T21:24:41.076Z,25.90
2023-01-17T21:27:43.481Z,25.90
2023-01-17T21:30:46.065Z,25.90
2023-01-17T21:33:49.329Z,25.90
2023-01-17T21:36:52.277Z,25.90
2023-01-17T21:39:56.869Z,25.80
2023-01-17T21:42:58.938Z,25.90
2023-01-17T21:46:05.089Z,25.90
2023-01-17T21:49:10.671Z,26.00
2023-01-17T21:52:13.080Z,26.10
2023-01-17T21:55:35.054Z,26.20
2023-01-17T21:58:43.416Z,26.20
2023-01-17T22:01:45.509Z,26.30
2023-01-17T22:04:47.889Z,26.20
2023-01-17T22:08:11.113Z,26.20
2023-01-17T22:11:20.124Z,26.20
2023-01-17T22:14:22.280Z,26.10
2023-01-17T22:17:24.600Z,26.00
2023-01-17T22:20:26.739Z,26.00
2023-01-17T22:23:29.040Z,25.90
2023-01-17T22:26:31.758Z,26.00
2023-01-17T22:29:36.335Z,25.80
2023-01-17T22:32:38.866Z,25.30
2023-01-17T22:35:41.226Z,25.20
2023-01-17T22:38:43.759Z,25.40
2023-01-17T22:41:46.369Z,25.60
2023-01-17T22:44:48.572Z,25.80
2023-01-17T22:47:50.805Z,25.80
2023-01-17T22:50:58.414Z,25.90
2023-01-17T22:54:01.290Z,25.80
2023-01-17T22:57:03.273Z,25.80
2023-01-17T23:00:14.401Z,25.80
2023-01-17T23:03:17.608Z,25.80
2023-01-17T23:06:24.888Z,25.70
2023-01-17T23:09:27.103Z,25.70
2023-01-17T23:12:29.480Z,25.50
2023-01-17T23:15:50.001Z,25.60
2023-01-17T23:19:10.989Z,25.60
2023-01-17T23:22:20.296Z,25.50
2023-01-17T23:25:22.899Z,25.60
2023-01-17T23:28:24.897Z,25.80
2023-01-17T23:31:27.222Z,25.70
2023-01-17T23:34:29.292Z,25.80
2023-01-17T23:37:50.326Z,25.90
2023-01-17T23:41:17.432Z,25.70
2023-01-17T23:44:19.724Z,25.60
2023-01-17T23:47:21.752Z,25.50
2023-01-17T23:50:24.061Z,25.70
2023-01-17T23:53:27.337Z,25.40
2023-01-17T23:56:29.608Z,25.30
2023-01-17T23:59:32.180Z,25.00
